createdAt,value
2022-09-14T00:00:13.798Z,50.28
2022-09-14T00:02:47.163Z,50.34
2022-09-14T00:05:19.893Z,50.30
2022-09-14T00:07:52.818Z,50.42
2022-09-14T00:10:25.920Z,50.47
2022-09-14T00:12:58.913Z,50.50
2022-09-14T00:15:31.915Z,50.63
2022-09-14T00:18:04.925Z,50.73
2022-09-14T00:20:37.670Z,50.77
2022-09-14T00:23:10.859Z,50.75
2022-09-14T00:25:43.928Z,50.66
2022-09-14T00:28:16.915Z,50.83
2022-09-14T00:30:49.955Z,50.66
2022-09-14T00:33:22.878Z,50.76
2022-09-14T00:35:55.931Z,50.88
2022-09-14T00:38:28.882Z,50.88
2022-09-14T00:41:01.946Z,50.69
2022-09-14T00:43:34.918Z,50.77
2022-09-14T00:46:07.971Z,50.76
2022-09-14T00:48:40.940Z,50.80
2022-09-14T00:51:13.953Z,50.85
2022-09-14T00:53:46.989Z,50.95
2022-09-14T00:56:19.931Z,50.86
2022-09-14T00:58:53.014Z,50.87
2022-09-14T01:01:26.066Z,50.81
2022-09-14T01:03:59.014Z,50.81
2022-09-14T01:06:31.907Z,50.75
2022-09-14T01:09:04.990Z,50.72
2022-09-14T01:11:37.976Z,50.71
2022-09-14T01:14:11.024Z,50.71
2022-09-14T01:16:44.167Z,50.72
2022-09-14T01:19:16.999Z,50.70
2022-09-14T01:21:50.000Z,50.69
2022-09-14T01:24:22.891Z,50.66
2022-09-14T01:26:56.034Z,50.66
2022-09-14T01:29:28.947Z,50.69
2022-09-14T01:32:02.068Z,50.67
2022-09-14T01:34:35.011Z,50.62
2022-09-14T01:37:07.968Z,50.72
2022-09-14T01:39:41.000Z,50.64
2022-09-14T01:42:14.055Z,50.67
2022-09-14T01:44:46.969Z,50.63
2022-09-14T01:47:20.088Z,50.62
2022-09-14T01:49:52.999Z,50.62
2022-09-14T01:52:26.050Z,50.63
2022-09-14T01:54:58.966Z,50.61
2022-09-14T01:57:31.963Z,50.60
2022-09-14T02:00:04.857Z,50.71
2022-09-14T02:02:38.168Z,50.63
2022-09-14T02:05:11.020Z,50.76
2022-09-14T02:07:44.101Z,50.80
2022-09-14T02:10:17.074Z,50.68
2022-09-14T02:12:50.069Z,50.68
2022-09-14T02:15:23.080Z,50.77
2022-09-14T02:17:58.942Z,50.64
2022-09-14T02:20:32.013Z,50.68
2022-09-14T02:23:05.004Z,50.66
2022-09-14T02:25:38.071Z,50.64
2022-09-14T02:28:11.096Z,50.72
2022-09-14T02:30:43.897Z,50.68
2022-09-14T02:33:17.070Z,50.77
2022-09-14T02:35:50.068Z,50.73
2022-09-14T02:38:23.131Z,50.67
2022-09-14T02:40:56.007Z,50.64
2022-09-14T02:43:29.121Z,50.72
2022-09-14T02:46:02.222Z,50.72
2022-09-14T02:48:35.144Z,50.70
2022-09-14T02:51:08.057Z,50.79
2022-09-14T02:53:41.103Z,50.75
2022-09-14T02:56:14.073Z,50.86
2022-09-14T02:58:47.259Z,50.77
2022-09-14T03:01:20.260Z,50.77
2022-09-14T03:03:53.151Z,50.80
2022-09-14T03:06:26.185Z,50.79
2022-09-14T03:08:59.149Z,50.80
2022-09-14T03:11:32.057Z,50.84
2022-09-14T03:14:05.130Z,50.80
2022-09-14T03:16:38.048Z,50.80
2022-09-14T03:19:11.154Z,50.89
2022-09-14T03:21:44.125Z,50.83
2022-09-14T03:24:17.153Z,50.84
2022-09-14T03:26:50.176Z,50.73
2022-09-14T03:29:23.179Z,50.79
2022-09-14T03:31:56.275Z,50.84
2022-09-14T03:34:29.173Z,50.80
2022-09-14T03:37:02.171Z,50.91
2022-09-14T03:39:35.109Z,50.91
2022-09-14T03:42:08.187Z,50.91
2022-09-14T03:44:41.093Z,50.92
2022-09-14T03:47:14.247Z,50.92
2022-09-14T03:49:47.215Z,50.92
2022-09-14T03:52:20.211Z,50.86
2022-09-14T03:54:53.213Z,50.94
2022-09-14T03:57:26.230Z,50.86
2022-09-14T03:59:59.267Z,51.02
2022-09-14T04:02:32.211Z,50.96
2022-09-14T04:05:04.881Z,50.93
2022-09-14T04:07:37.913Z,51.07
2022-09-14T04:10:11.142Z,51.06
2022-09-14T04:12:44.174Z,51.08
2022-09-14T04:15:17.988Z,50.60
2022-09-14T04:17:51.295Z,50.01
2022-09-14T04:20:23.999Z,50.67
2022-09-14T04:22:57.072Z,50.47
2022-09-14T04:25:30.027Z,50.46
2022-09-14T04:28:19.607Z,50.38
2022-09-14T04:30:36.091Z,50.16
2022-09-14T04:33:09.226Z,50.31
2022-09-14T04:35:42.112Z,50.25
2022-09-14T04:38:15.077Z,50.14
2022-09-14T04:40:48.280Z,50.13
2022-09-14T04:43:21.229Z,50.13
2022-09-14T04:45:54.253Z,50.17
2022-09-14T04:48:27.270Z,50.37
2022-09-14T04:51:00.287Z,50.31
2022-09-14T04:53:33.202Z,50.31
2022-09-14T04:56:05.982Z,50.27
2022-09-14T04:58:39.063Z,50.23
2022-09-14T05:01:12.244Z,50.33
2022-09-14T05:03:45.342Z,50.25
2022-09-14T05:06:18.045Z,50.21
2022-09-14T05:08:51.094Z,50.17
2022-09-14T05:11:24.126Z,50.21
2022-09-14T05:13:57.338Z,50.18
2022-09-14T05:16:30.292Z,50.20
2022-09-14T05:19:03.202Z,50.16
2022-09-14T05:21:36.241Z,50.17
2022-09-14T05:24:09.291Z,50.17
2022-09-14T05:26:42.015Z,50.10
2022-09-14T05:29:15.345Z,50.13
2022-09-14T05:31:48.419Z,50.13
2022-09-14T05:34:21.351Z,50.11
2022-09-14T05:36:54.354Z,50.13
2022-09-14T05:39:27.313Z,50.08
2022-09-14T05:42:00.352Z,50.06
2022-09-14T05:44:33.306Z,50.06
2022-09-14T05:47:06.354Z,50.06
2022-09-14T05:49:39.341Z,50.09
2022-09-14T05:52:12.420Z,50.03
2022-09-14T05:54:45.275Z,50.02
2022-09-14T05:57:18.398Z,50.02
2022-09-14T05:59:51.367Z,50.01
2022-09-14T06:02:24.427Z,49.96
2022-09-14T06:04:57.517Z,49.96
2022-09-14T06:07:30.324Z,49.92
2022-09-14T06:10:03.388Z,49.93
2022-09-14T06:12:36.370Z,49.93
2022-09-14T06:15:09.414Z,49.90
2022-09-14T06:17:42.119Z,49.92
2022-09-14T06:20:15.334Z,49.91
2022-09-14T06:22:48.380Z,49.86
2022-09-14T06:25:21.446Z,49.85
2022-09-14T06:27:54.400Z,49.83
2022-09-14T06:30:27.461Z,49.82
2022-09-14T06:33:00.451Z,49.83
2022-09-14T06:35:33.477Z,49.78
2022-09-14T06:38:06.469Z,49.79
2022-09-14T06:40:39.089Z,49.78
2022-09-14T06:43:12.437Z,49.77
2022-09-14T06:45:45.408Z,49.77
2022-09-14T06:48:18.390Z,49.80
2022-09-14T06:50:51.493Z,49.73
2022-09-14T06:53:24.475Z,49.73
2022-09-14T06:55:57.472Z,49.70
2022-09-14T06:58:30.420Z,49.73
2022-09-14T07:01:03.486Z,49.73
2022-09-14T07:03:36.503Z,49.70
2022-09-14T07:06:09.528Z,49.71
2022-09-14T07:08:42.494Z,49.68
2022-09-14T07:11:15.516Z,49.68
2022-09-14T07:13:48.464Z,49.68
2022-09-14T07:16:21.285Z,49.65
2022-09-14T07:18:54.546Z,49.69
2022-09-14T07:21:27.504Z,49.67
2022-09-14T07:24:00.530Z,49.63
2022-09-14T07:26:33.507Z,49.65
2022-09-14T07:29:06.489Z,49.60
2022-09-14T07:31:39.488Z,49.62
2022-09-14T07:34:12.500Z,49.63
2022-09-14T07:36:45.500Z,49.61
2022-09-14T07:39:18.547Z,49.60
2022-09-14T07:41:51.457Z,49.60
2022-09-14T07:44:24.552Z,49.57
2022-09-14T07:46:57.519Z,49.58
2022-09-14T07:49:30.494Z,49.58
2022-09-14T07:52:03.564Z,49.57
2022-09-14T07:54:36.554Z,49.57
2022-09-14T07:57:09.563Z,49.58
2022-09-14T07:59:42.595Z,49.56
2022-09-14T08:02:15.579Z,49.55
2022-09-14T08:04:48.579Z,49.53
2022-09-14T08:07:21.599Z,49.53
2022-09-14T08:09:54.385Z,49.52
2022-09-14T08:12:27.563Z,49.51
2022-09-14T08:15:00.508Z,49.49
2022-09-14T08:17:33.590Z,49.54
2022-09-14T08:20:06.590Z,49.54
2022-09-14T08:22:39.582Z,49.53
2022-09-14T08:25:12.592Z,49.50
2022-09-14T08:27:45.572Z,49.51
2022-09-14T08:30:18.516Z,49.47
2022-09-14T08:32:51.583Z,49.48
2022-09-14T08:35:46.851Z,49.46
2022-09-14T08:37:57.615Z,49.45
2022-09-14T08:40:30.646Z,49.44
2022-09-14T08:43:03.628Z,49.44
2022-09-14T08:45:36.614Z,49.44
2022-09-14T08:48:15.577Z,49.42
2022-09-14T08:50:48.623Z,49.42
2022-09-14T08:53:21.667Z,49.42
2022-09-14T08:55:54.639Z,49.41
2022-09-14T08:58:35.071Z,49.42
2022-09-14T09:01:06.701Z,49.42
2022-09-14T09:03:39.679Z,49.41
2022-09-14T09:06:15.791Z,49.41
2022-09-14T09:08:45.707Z,49.42
2022-09-14T09:11:18.551Z,49.42
2022-09-14T09:13:51.662Z,49.38
2022-09-14T09:16:24.730Z,49.36
2022-09-14T09:18:57.636Z,49.37
2022-09-14T09:21:30.650Z,49.35
2022-09-14T09:24:03.699Z,49.36
2022-09-14T09:26:36.687Z,49.34
2022-09-14T09:29:09.679Z,49.35
2022-09-14T09:31:42.651Z,49.35
2022-09-14T09:34:15.690Z,49.33
2022-09-14T09:36:48.697Z,49.31
2022-09-14T09:39:21.728Z,49.30
2022-09-14T09:41:54.679Z,49.31
2022-09-14T09:44:27.758Z,49.31
2022-09-14T09:47:00.712Z,49.29
2022-09-14T09:49:33.703Z,49.30
2022-09-14T09:52:06.708Z,49.28
2022-09-14T09:54:39.701Z,49.30
2022-09-14T09:57:12.712Z,49.30
2022-09-14T09:59:45.710Z,49.27
2022-09-14T10:02:18.771Z,49.28
2022-09-14T10:04:51.749Z,49.27
2022-09-14T10:07:24.747Z,49.26
2022-09-14T10:09:57.871Z,49.28
2022-09-14T10:12:30.640Z,49.26
2022-09-14T10:15:03.731Z,49.24
2022-09-14T10:17:36.644Z,49.22
2022-09-14T10:20:09.709Z,49.22
2022-09-14T10:22:42.674Z,49.21
2022-09-14T10:25:15.795Z,49.20
2022-09-14T10:27:48.745Z,49.20
2022-09-14T10:30:21.772Z,49.22
2022-09-14T10:32:54.777Z,49.21
2022-09-14T10:35:27.849Z,49.19
2022-09-14T10:38:01.751Z,49.19
2022-09-14T10:40:34.561Z,49.19
2022-09-14T10:43:07.711Z,49.17
2022-09-14T10:45:40.704Z,49.18
2022-09-14T10:48:19.736Z,49.15
2022-09-14T10:50:52.725Z,49.16
2022-09-14T10:53:25.810Z,49.17
2022-09-14T10:55:58.929Z,49.16
2022-09-14T10:58:31.801Z,49.13
2022-09-14T11:01:04.817Z,49.13
2022-09-14T11:03:37.742Z,49.12
2022-09-14T11:06:10.822Z,49.11
2022-09-14T11:08:43.466Z,49.12
2022-09-14T11:11:22.701Z,49.10
2022-09-14T11:13:55.814Z,49.12
2022-09-14T11:16:28.936Z,49.10
2022-09-14T11:19:01.774Z,49.10
2022-09-14T11:21:34.843Z,49.09
2022-09-14T11:24:07.887Z,49.09
2022-09-14T11:26:42.501Z,49.09
2022-09-14T11:29:13.856Z,49.09
2022-09-14T11:31:59.024Z,49.05
2022-09-14T11:34:19.814Z,49.04
2022-09-14T11:36:52.799Z,49.05
2022-09-14T11:39:25.892Z,49.04
2022-09-14T11:41:58.880Z,49.03
2022-09-14T11:44:31.924Z,49.03
2022-09-14T11:47:04.862Z,49.03
2022-09-14T11:49:37.839Z,48.99
2022-09-14T11:52:10.814Z,49.00
2022-09-14T11:54:46.792Z,48.99
2022-09-14T11:57:16.884Z,48.99
2022-09-14T11:59:49.828Z,48.98
2022-09-14T12:02:22.952Z,48.99
2022-09-14T12:04:55.557Z,49.01
2022-09-14T12:10:18.739Z,48.97
2022-09-14T12:12:51.849Z,48.94
2022-09-14T12:15:24.963Z,48.96
2022-09-14T12:17:57.687Z,48.96
2022-09-14T12:20:30.583Z,48.93
2022-09-14T12:23:03.564Z,48.93
2022-09-14T12:25:36.641Z,48.95
2022-09-14T12:28:09.606Z,48.95
2022-09-14T12:30:42.659Z,48.93
2022-09-14T12:33:15.794Z,48.92
2022-09-14T12:35:48.688Z,48.92
2022-09-14T12:38:21.658Z,48.92
2022-09-14T12:40:54.736Z,48.92
2022-09-14T12:43:27.797Z,48.93
2022-09-14T12:46:00.780Z,48.91
2022-09-14T12:48:33.947Z,48.92
2022-09-14T12:51:06.763Z,48.90
2022-09-14T12:53:39.646Z,48.90
2022-09-14T12:56:12.627Z,48.89
2022-09-14T12:58:45.861Z,48.89
2022-09-14T13:01:18.721Z,48.87
2022-09-14T13:03:51.842Z,48.89
2022-09-14T13:06:24.989Z,48.87
2022-09-14T13:08:57.724Z,48.87
2022-09-14T13:11:30.800Z,48.87
2022-09-14T13:14:03.869Z,48.87
2022-09-14T13:16:36.854Z,48.85
2022-09-14T13:19:13.061Z,48.85
2022-09-14T13:21:42.730Z,48.88
2022-09-14T13:24:15.931Z,48.84
2022-09-14T13:26:49.006Z,48.82
2022-09-14T13:29:21.853Z,48.96
2022-09-14T13:31:56.174Z,49.52
2022-09-14T13:34:27.831Z,49.44
2022-09-14T13:37:01.154Z,49.33
2022-09-14T13:39:34.832Z,49.22
2022-09-14T13:42:07.805Z,49.20
2022-09-14T13:44:40.967Z,49.28
2022-09-14T13:47:13.673Z,49.22
2022-09-14T13:49:46.833Z,49.23
2022-09-14T13:52:19.783Z,49.28
2022-09-14T13:54:52.737Z,49.25
2022-09-14T13:57:25.719Z,49.20
2022-09-14T13:59:59.030Z,49.27
2022-09-14T14:02:32.595Z,49.20
2022-09-14T14:05:05.866Z,49.31
2022-09-14T14:07:52.777Z,49.30
2022-09-14T14:10:25.903Z,49.35
2022-09-14T14:12:59.168Z,49.41
2022-09-14T14:15:31.894Z,49.37
2022-09-14T14:18:04.827Z,49.37
2022-09-14T14:20:37.786Z,49.37
2022-09-14T14:23:10.740Z,49.55
2022-09-14T14:25:46.275Z,49.59
2022-09-14T14:28:16.802Z,49.48
2022-09-14T14:30:49.901Z,49.57
2022-09-14T14:33:25.819Z,49.58
2022-09-14T14:35:58.929Z,49.59
2022-09-14T14:38:31.783Z,49.56
2022-09-14T14:41:04.957Z,49.74
2022-09-14T14:43:37.920Z,49.72
2022-09-14T14:46:11.201Z,49.87
2022-09-14T14:48:44.707Z,49.82
2022-09-14T14:51:18.214Z,49.85
2022-09-14T14:53:50.779Z,49.81
2022-09-14T14:56:23.917Z,49.87
2022-09-14T14:59:02.199Z,49.87
2022-09-14T15:01:33.047Z,49.85
2022-09-14T15:04:05.980Z,49.95
2022-09-14T15:06:39.092Z,49.80
2022-09-14T15:09:11.990Z,49.85
2022-09-14T15:11:45.168Z,49.88
2022-09-14T15:14:18.853Z,49.87
2022-09-14T15:16:52.165Z,49.84
2022-09-14T15:19:24.895Z,49.86
2022-09-14T15:22:03.717Z,50.22
2022-09-14T15:24:36.825Z,50.24
2022-09-14T15:27:09.838Z,50.23
2022-09-14T15:29:42.858Z,50.12
2022-09-14T15:32:15.880Z,50.20
2022-09-14T15:34:48.844Z,50.22
2022-09-14T15:37:21.841Z,50.22
2022-09-14T15:39:55.339Z,50.36
2022-09-14T15:42:27.843Z,50.48
2022-09-14T15:45:00.894Z,50.49
2022-09-14T15:47:36.448Z,50.40
2022-09-14T15:50:07.067Z,50.45
2022-09-14T15:52:39.852Z,50.36
2022-09-14T15:55:12.893Z,50.27
2022-09-14T15:57:59.926Z,50.62
2022-09-14T16:00:33.266Z,50.32
2022-09-14T16:03:06.272Z,50.47
2022-09-14T16:05:39.169Z,50.52
2022-09-14T16:08:11.906Z,50.48
2022-09-14T16:10:45.045Z,50.55
2022-09-14T16:13:17.914Z,50.51
2022-09-14T16:15:53.579Z,50.57
2022-09-14T16:18:23.921Z,50.60
2022-09-14T16:20:57.059Z,50.67
2022-09-14T16:23:30.274Z,50.61
2022-09-14T16:26:03.067Z,50.74
2022-09-14T16:28:36.043Z,50.61
2022-09-14T16:31:08.993Z,50.65
2022-09-14T16:33:45.118Z,50.76
2022-09-14T16:36:18.298Z,50.78
2022-09-14T16:38:51.153Z,50.81
2022-09-14T16:41:24.081Z,50.89
2022-09-14T16:43:57.016Z,50.90
2022-09-14T16:46:30.113Z,50.83
2022-09-14T16:49:03.023Z,50.86
2022-09-14T16:51:35.989Z,50.99
2022-09-14T16:54:08.963Z,50.94
2022-09-14T16:56:42.278Z,51.03
2022-09-14T16:59:15.301Z,51.04
2022-09-14T17:01:53.615Z,51.02
2022-09-14T17:04:21.400Z,51.12
2022-09-14T17:06:54.018Z,51.16
2022-09-14T17:09:27.228Z,51.22
2022-09-14T17:11:59.987Z,51.27
2022-09-14T17:14:33.257Z,51.24
2022-09-14T17:17:06.165Z,51.28
2022-09-14T17:19:43.437Z,51.26
2022-09-14T17:22:12.000Z,51.27
2022-09-14T17:24:45.113Z,51.26
2022-09-14T17:27:18.046Z,51.24
2022-09-14T17:29:51.450Z,51.31
2022-09-14T17:32:24.125Z,51.45
2022-09-14T17:34:57.150Z,51.40
2022-09-14T17:37:43.924Z,51.42
2022-09-14T17:40:17.339Z,51.40
2022-09-14T17:42:54.205Z,51.49
2022-09-14T17:45:27.306Z,51.45
2022-09-14T17:48:00.036Z,51.33
2022-09-14T17:50:33.333Z,51.46
2022-09-14T17:53:10.248Z,51.46
2022-09-14T17:55:43.178Z,51.46
2022-09-14T17:58:19.571Z,51.54
2022-09-14T18:00:49.106Z,51.56
2022-09-14T18:03:22.173Z,50.82
2022-09-14T18:05:55.109Z,50.18
2022-09-14T18:08:28.231Z,50.48
2022-09-14T18:11:01.201Z,50.14
2022-09-14T18:13:34.462Z,50.15
2022-09-14T18:16:07.479Z,50.05
2022-09-14T18:18:40.379Z,50.18
2022-09-14T18:21:13.569Z,50.36
2022-09-14T18:23:47.434Z,50.43
2022-09-14T18:26:20.384Z,50.46
2022-09-14T18:28:53.256Z,50.53
2022-09-14T18:31:26.389Z,50.56
2022-09-14T18:33:59.441Z,50.64
2022-09-14T18:36:32.511Z,50.72
2022-09-14T18:39:05.450Z,50.73
2022-09-14T18:41:38.605Z,50.84
2022-09-14T18:44:12.375Z,50.80
2022-09-14T18:46:45.460Z,50.90
2022-09-14T18:49:19.388Z,50.87
2022-09-14T18:51:52.358Z,50.96
2022-09-14T18:54:27.838Z,50.94
2022-09-14T18:56:59.166Z,50.92
2022-09-14T18:59:32.242Z,50.95
2022-09-14T19:02:05.284Z,50.98
2022-09-14T19:04:38.510Z,50.98
2022-09-14T19:07:11.361Z,50.95
2022-09-14T19:09:44.244Z,50.98
2022-09-14T19:12:17.280Z,51.03
2022-09-14T19:14:56.459Z,50.97
2022-09-14T19:17:29.251Z,51.00
2022-09-14T19:20:02.300Z,50.92
2022-09-14T19:22:35.336Z,50.94
2022-09-14T19:25:08.307Z,50.93
2022-09-14T19:27:41.269Z,50.95
2022-09-14T19:30:14.251Z,50.94
2022-09-14T19:32:47.293Z,50.92
2022-09-14T19:35:20.459Z,50.93
2022-09-14T19:37:53.587Z,50.97
2022-09-14T19:40:26.558Z,50.88
2022-09-14T19:43:13.273Z,50.94
2022-09-14T19:45:46.550Z,50.94
2022-09-14T19:48:19.687Z,50.94
2022-09-14T19:50:53.557Z,50.97
2022-09-14T19:53:26.525Z,50.92
2022-09-14T19:55:59.258Z,50.87
2022-09-14T19:58:32.552Z,50.93
2022-09-14T20:01:05.332Z,50.93
2022-09-14T20:03:38.399Z,50.70
2022-09-14T20:06:17.431Z,50.12
2022-09-14T20:08:50.347Z,50.19
2022-09-14T20:11:23.352Z,50.39
2022-09-14T20:13:56.276Z,50.69
2022-09-14T20:16:29.788Z,50.72
2022-09-14T20:19:02.301Z,50.86
2022-09-14T20:21:35.586Z,50.90
2022-09-14T20:24:17.369Z,50.96
2022-09-14T20:26:55.256Z,50.99
2022-09-14T20:29:28.392Z,51.07
2022-09-14T20:32:01.298Z,51.12
2022-09-14T20:34:34.568Z,51.11
2022-09-14T20:37:08.637Z,51.08
2022-09-14T20:39:41.526Z,51.16
2022-09-14T20:42:14.550Z,51.17
2022-09-14T20:44:47.546Z,51.19
2022-09-14T20:47:20.568Z,51.22
2022-09-14T20:49:53.699Z,51.35
2022-09-14T20:52:26.616Z,51.30
2022-09-14T20:55:00.673Z,51.28
2022-09-14T20:57:33.656Z,51.34
2022-09-14T21:00:06.572Z,51.42
2022-09-14T21:02:39.733Z,51.43
2022-09-14T21:05:12.583Z,51.44
2022-09-14T21:07:45.649Z,51.49
2022-09-14T21:10:18.595Z,51.48
2022-09-14T21:12:51.658Z,51.68
2022-09-14T21:15:24.652Z,51.63
2022-09-14T21:17:57.651Z,51.64
2022-09-14T21:20:30.685Z,51.72
2022-09-14T21:23:03.680Z,51.67
2022-09-14T21:25:36.785Z,51.76
2022-09-14T21:28:09.657Z,51.83
2022-09-14T21:30:42.469Z,51.86
2022-09-14T21:33:15.639Z,51.90
2022-09-14T21:35:48.477Z,51.91
2022-09-14T21:38:21.627Z,51.91
2022-09-14T21:40:54.866Z,51.99
2022-09-14T21:43:27.706Z,52.07
2022-09-14T21:46:00.744Z,52.10
2022-09-14T21:48:33.706Z,51.99
2022-09-14T21:51:06.533Z,52.09
2022-09-14T21:53:39.767Z,52.01
2022-09-14T21:56:12.748Z,52.07
2022-09-14T21:58:45.738Z,52.12
2022-09-14T22:01:18.790Z,52.14
2022-09-14T22:03:51.826Z,52.15
2022-09-14T22:06:24.690Z,52.18
2022-09-14T22:08:57.765Z,52.25
2022-09-14T22:11:30.714Z,52.33
2022-09-14T22:14:09.603Z,52.28
2022-09-14T22:16:42.734Z,52.32
2022-09-14T22:19:15.780Z,52.37
2022-09-14T22:21:48.698Z,52.35
2022-09-14T22:24:21.755Z,52.38
2022-09-14T22:26:54.827Z,52.44
2022-09-14T22:29:27.789Z,52.50
2022-09-14T22:32:00.696Z,52.46
2022-09-14T22:34:33.783Z,52.37
2022-09-14T22:37:06.708Z,52.52
2022-09-14T22:39:39.782Z,52.45
2022-09-14T22:42:12.781Z,52.38
2022-09-14T22:44:45.868Z,52.40
2022-09-14T22:47:18.722Z,52.45
2022-09-14T22:49:51.800Z,52.42
2022-09-14T22:52:24.812Z,52.39
2022-09-14T22:54:57.856Z,52.40
2022-09-14T22:57:30.841Z,52.40
2022-09-14T23:00:03.748Z,52.34
2022-09-14T23:02:36.894Z,52.50
2022-09-14T23:05:09.815Z,52.50
2022-09-14T23:07:42.866Z,52.54
2022-09-14T23:10:15.822Z,52.54
2022-09-14T23:12:48.854Z,52.63
2022-09-14T23:15:21.817Z,52.71
2022-09-14T23:17:54.736Z,52.57
2022-09-14T23:20:27.828Z,52.61
2022-09-14T23:23:00.827Z,52.73
2022-09-14T23:25:33.876Z,52.66
2022-09-14T23:28:06.813Z,52.72
2022-09-14T23:30:39.676Z,52.70
2022-09-14T23:33:12.884Z,52.70
2022-09-14T23:35:45.853Z,52.54
2022-09-14T23:38:18.811Z,52.58
2022-09-14T23:40:51.895Z,52.63
2022-09-14T23:43:24.918Z,52.60
2022-09-14T23:45:57.831Z,52.61
2022-09-14T23:48:30.883Z,52.53
2022-09-14T23:51:03.800Z,52.53
2022-09-14T23:53:36.941Z,52.58
2022-09-14T23:56:09.826Z,52.53
2022-09-14T23:58:56.946Z,52.69
